createdAt,value
2023-01-29T00:01:59.993Z,4.93
2023-01-29T00:04:28.497Z,3.10
2023-01-29T00:06:56.935Z,4.60
2023-01-29T00:09:25.340Z,6.00
2023-01-29T00:11:53.684Z,3.20
2023-01-29T00:14:23.457Z,6.87
2023-01-29T00:16:51.858Z,8.03
2023-01-29T00:19:20.554Z,3.73
2023-01-29T00:21:49.011Z,6.90
2023-01-29T00:24:17.460Z,5.37
2023-01-29T00:26:45.880Z,5.10
2023-01-29T00:29:14.757Z,5.70
2023-01-29T00:31:45.942Z,6.73
2023-01-29T00:34:14.480Z,3.53
2023-01-29T00:36:44.320Z,6.53
2023-01-29T00:39:12.705Z,8.80
2023-01-29T00:41:58.610Z,4.23
2023-01-29T00:44:44.707Z,6.63
2023-01-29T00:47:33.303Z,5.00
2023-01-29T00:50:01.840Z,14.50
2023-01-29T00:52:30.501Z,4.10
2023-01-29T00:54:59.509Z,8.23
2023-01-29T00:57:28.802Z,8.47
2023-01-29T00:59:57.231Z,6.63
2023-01-29T01:02:44.839Z,8.07
2023-01-29T01:05:17.990Z,6.13
2023-01-29T01:07:47.290Z,7.47
2023-01-29T01:10:21.899Z,5.73
2023-01-29T01:12:52.029Z,6.33
2023-01-29T01:15:20.793Z,3.60
2023-01-29T01:17:53.319Z,5.37
2023-01-29T01:20:21.848Z,6.87
2023-01-29T01:22:50.281Z,8.80
2023-01-29T01:25:18.837Z,10.27
2023-01-29T01:27:47.189Z,6.10
2023-01-29T01:30:17.752Z,7.40
2023-01-29T01:32:46.515Z,5.90
2023-01-29T01:35:16.324Z,7.10
2023-01-29T01:37:44.756Z,6.77
2023-01-29T01:40:18.375Z,9.73
2023-01-29T01:42:49.432Z,11.07
2023-01-29T01:45:22.903Z,5.43
2023-01-29T01:47:53.795Z,7.63
2023-01-29T01:50:25.083Z,6.43
2023-01-29T01:52:55.095Z,6.30
2023-01-29T01:55:25.169Z,2.50
2023-01-29T01:57:54.895Z,7.63
2023-01-29T02:00:24.035Z,2.80
2023-01-29T02:03:10.185Z,8.43
2023-01-29T02:05:58.830Z,3.53
2023-01-29T02:08:47.969Z,3.23
2023-01-29T02:11:16.531Z,3.70
2023-01-29T02:13:45.074Z,5.73
2023-01-29T02:16:13.490Z,6.33
2023-01-29T02:18:41.876Z,7.40
2023-01-29T02:21:29.268Z,6.83
2023-01-29T02:24:08.307Z,5.10
2023-01-29T02:26:43.133Z,8.40
2023-01-29T02:29:25.161Z,9.07
2023-01-29T02:31:59.000Z,4.10
2023-01-29T02:34:31.943Z,10.07
2023-01-29T02:37:04.690Z,9.00
2023-01-29T02:39:35.497Z,10.47
2023-01-29T02:42:09.794Z,2.83
2023-01-29T02:44:42.260Z,10.27
2023-01-29T02:47:14.008Z,7.10
2023-01-29T02:49:46.196Z,6.63
2023-01-29T02:52:17.343Z,5.63
2023-01-29T02:54:47.952Z,4.40
2023-01-29T02:57:20.250Z,7.20
2023-01-29T02:59:52.529Z,10.37
2023-01-29T03:02:23.900Z,6.67
2023-01-29T03:04:54.441Z,4.13
2023-01-29T03:07:39.397Z,10.30
2023-01-29T03:10:08.919Z,4.53
2023-01-29T03:12:40.943Z,5.03
2023-01-29T03:15:12.691Z,6.37
2023-01-29T03:17:43.842Z,8.20
2023-01-29T03:20:15.006Z,10.07
2023-01-29T03:22:46.354Z,5.70
2023-01-29T03:25:35.156Z,16.97
2023-01-29T03:28:21.890Z,5.50
2023-01-29T03:31:11.748Z,12.17
2023-01-29T03:33:42.685Z,4.30
2023-01-29T03:36:12.368Z,3.37
2023-01-29T03:38:40.787Z,3.13
2023-01-29T03:41:13.143Z,3.73
2023-01-29T03:43:43.996Z,5.97
2023-01-29T03:46:19.212Z,4.37
2023-01-29T03:48:52.447Z,4.20
2023-01-29T03:51:24.344Z,14.40
2023-01-29T03:53:55.611Z,9.20
2023-01-29T03:56:30.957Z,3.27
2023-01-29T03:59:01.089Z,5.20
2023-01-29T04:01:32.815Z,9.20
2023-01-29T04:04:05.380Z,5.10
2023-01-29T04:06:35.719Z,5.50
2023-01-29T04:09:06.157Z,6.23
2023-01-29T04:11:35.788Z,4.43
2023-01-29T04:14:04.686Z,8.70
2023-01-29T04:16:37.464Z,5.00
2023-01-29T04:19:06.923Z,7.10
2023-01-29T04:21:37.218Z,9.87
2023-01-29T04:24:05.875Z,8.63
2023-01-29T04:26:39.556Z,8.87
2023-01-29T04:29:17.412Z,7.33
2023-01-29T04:31:49.825Z,6.67
2023-01-29T04:34:22.119Z,10.67
2023-01-29T04:37:04.588Z,14.43
2023-01-29T04:39:35.084Z,5.60
2023-01-29T04:42:08.358Z,3.30
2023-01-29T04:44:40.715Z,7.80
2023-01-29T04:47:15.270Z,9.40
2023-01-29T04:49:46.918Z,3.50
2023-01-29T04:52:18.906Z,7.87
2023-01-29T04:54:56.185Z,5.07
2023-01-29T04:57:26.807Z,5.03
2023-01-29T04:59:58.850Z,4.93
2023-01-29T05:02:29.196Z,3.37
2023-01-29T05:04:58.510Z,15.10
2023-01-29T05:07:27.495Z,9.75
2023-01-29T05:09:56.714Z,7.13
2023-01-29T05:12:27.031Z,6.27
2023-01-29T05:14:56.285Z,6.17
2023-01-29T05:17:25.252Z,8.60
2023-01-29T05:19:55.217Z,6.60
2023-01-29T05:22:23.864Z,13.37
2023-01-29T05:24:52.636Z,4.80
2023-01-29T05:27:40.421Z,4.43
2023-01-29T05:30:10.364Z,2.97
2023-01-29T05:32:39.773Z,3.40
2023-01-29T05:35:09.965Z,7.07
2023-01-29T05:37:38.446Z,6.90
2023-01-29T05:40:08.829Z,8.10
2023-01-29T05:42:37.332Z,4.13
2023-01-29T05:45:06.088Z,5.10
2023-01-29T05:47:34.544Z,6.33
2023-01-29T05:50:02.984Z,5.20
2023-01-29T05:52:32.801Z,4.20
2023-01-29T05:55:01.204Z,9.23
2023-01-29T05:57:29.676Z,5.07
2023-01-29T05:59:58.070Z,15.17
2023-01-29T06:02:26.505Z,5.60
2023-01-29T06:04:54.917Z,7.47
2023-01-29T06:07:23.306Z,8.00
2023-01-29T06:09:53.094Z,8.60
2023-01-29T06:12:21.483Z,6.10
2023-01-29T06:14:49.917Z,8.90
2023-01-29T06:17:18.351Z,6.47
2023-01-29T06:19:46.792Z,5.23
2023-01-29T06:22:15.201Z,5.43
2023-01-29T06:24:43.533Z,7.40
2023-01-29T06:27:13.313Z,4.77
2023-01-29T06:29:41.818Z,7.20
2023-01-29T06:32:10.313Z,15.00
2023-01-29T06:34:38.718Z,11.57
2023-01-29T06:37:07.960Z,6.23
2023-01-29T06:39:36.605Z,7.10
2023-01-29T06:42:05.101Z,7.40
2023-01-29T06:44:34.838Z,7.13
2023-01-29T06:47:03.208Z,9.50
2023-01-29T06:49:31.614Z,6.10
2023-01-29T06:52:00.036Z,6.20
2023-01-29T06:54:28.461Z,5.60
2023-01-29T06:56:57.023Z,5.63
2023-01-29T06:59:25.415Z,7.57
2023-01-29T07:01:55.245Z,10.30
2023-01-29T07:04:23.679Z,7.90
2023-01-29T07:06:52.079Z,5.27
2023-01-29T07:09:20.494Z,6.23
2023-01-29T07:11:48.841Z,4.53
2023-01-29T07:14:17.257Z,10.33
2023-01-29T07:16:45.635Z,5.57
2023-01-29T07:19:15.471Z,8.07
2023-01-29T07:21:43.911Z,7.43
2023-01-29T07:24:12.368Z,8.17
2023-01-29T07:26:40.798Z,5.57
2023-01-29T07:29:09.277Z,5.13
2023-01-29T07:31:37.789Z,9.93
2023-01-29T07:34:06.228Z,13.37
2023-01-29T07:36:37.210Z,9.93
2023-01-29T07:39:05.680Z,14.67
2023-01-29T07:41:34.037Z,9.50
2023-01-29T07:44:02.368Z,5.50
2023-01-29T07:46:30.753Z,5.67
2023-01-29T07:49:00.136Z,5.13
2023-01-29T07:51:28.576Z,9.87
2023-01-29T07:53:58.333Z,4.80
2023-01-29T07:56:26.793Z,8.37
2023-01-29T07:58:55.189Z,15.27
2023-01-29T08:01:23.668Z,5.90
2023-01-29T08:03:52.097Z,7.50
2023-01-29T08:06:20.463Z,6.03
2023-01-29T08:08:48.938Z,7.73
2023-01-29T08:11:18.724Z,4.73
2023-01-29T08:13:47.118Z,6.27
2023-01-29T08:16:15.608Z,4.23
2023-01-29T08:18:47.666Z,4.93
2023-01-29T08:21:16.381Z,17.33
2023-01-29T08:23:44.743Z,4.90
2023-01-29T08:26:13.169Z,6.37
2023-01-29T08:28:42.931Z,4.20
2023-01-29T08:31:15.467Z,3.80
2023-01-29T08:33:43.913Z,3.90
2023-01-29T08:36:12.467Z,14.80
2023-01-29T08:38:40.947Z,6.67
2023-01-29T08:41:09.479Z,6.10
2023-01-29T08:43:38.671Z,5.57
2023-01-29T08:46:09.139Z,7.00
2023-01-29T08:48:37.654Z,6.30
2023-01-29T08:51:06.340Z,5.23
2023-01-29T08:53:35.125Z,4.27
2023-01-29T08:56:03.863Z,6.27
2023-01-29T08:58:32.381Z,3.00
2023-01-29T09:01:08.476Z,8.13
2023-01-29T09:03:37.214Z,3.27
2023-01-29T09:06:05.824Z,10.80
2023-01-29T09:08:34.228Z,11.60
2023-01-29T09:11:02.657Z,7.00
2023-01-29T09:13:31.419Z,3.13
2023-01-29T09:16:01.070Z,6.13
2023-01-29T09:18:31.410Z,6.57
2023-01-29T09:20:59.848Z,3.00
2023-01-29T09:23:28.198Z,12.23
2023-01-29T09:25:56.612Z,7.20
2023-01-29T09:28:25.322Z,11.03
2023-01-29T09:30:53.921Z,5.60
2023-01-29T09:33:22.394Z,4.73
2023-01-29T09:35:52.206Z,5.37
2023-01-29T09:38:20.675Z,12.47
2023-01-29T09:40:55.201Z,7.43
2023-01-29T09:43:25.949Z,3.57
2023-01-29T09:45:56.899Z,6.83
2023-01-29T09:48:27.189Z,5.67
2023-01-29T09:50:58.255Z,8.00
2023-01-29T09:53:30.672Z,4.17
2023-01-29T09:56:01.047Z,6.63
2023-01-29T09:58:30.620Z,3.93
2023-01-29T10:01:02.470Z,9.90
2023-01-29T10:03:42.341Z,10.13
2023-01-29T10:06:22.200Z,4.90
2023-01-29T10:09:14.402Z,12.40
2023-01-29T10:11:45.989Z,7.43
2023-01-29T10:14:19.768Z,7.30
2023-01-29T10:16:56.316Z,3.33
2023-01-29T10:19:48.279Z,5.47
2023-01-29T10:22:29.346Z,3.10
2023-01-29T10:24:59.372Z,4.27
2023-01-29T10:27:32.258Z,6.40
2023-01-29T10:30:01.050Z,5.33
2023-01-29T10:32:29.894Z,4.87
2023-01-29T10:34:59.897Z,4.83
2023-01-29T10:37:33.012Z,4.63
2023-01-29T10:40:04.032Z,17.30
2023-01-29T10:42:36.180Z,6.20
2023-01-29T10:45:18.474Z,6.70
2023-01-29T10:48:11.142Z,2.93
2023-01-29T10:50:43.320Z,2.90
2023-01-29T10:53:20.024Z,2.67
2023-01-29T10:55:53.430Z,4.20
2023-01-29T10:58:28.256Z,5.00
2023-01-29T11:00:56.616Z,2.83
2023-01-29T11:03:28.306Z,3.27
2023-01-29T11:05:59.292Z,2.13
2023-01-29T11:08:31.618Z,3.20
2023-01-29T11:11:03.253Z,5.30
2023-01-29T11:13:33.136Z,8.33
2023-01-29T11:16:01.576Z,3.30
2023-01-29T11:18:49.916Z,2.97
2023-01-29T11:21:18.439Z,8.70
2023-01-29T11:23:48.347Z,3.80
2023-01-29T11:26:20.766Z,6.53
2023-01-29T11:28:50.023Z,6.37
2023-01-29T11:31:20.224Z,4.70
2023-01-29T11:33:48.745Z,3.33
2023-01-29T11:36:33.720Z,3.67
2023-01-29T11:39:12.510Z,3.30
2023-01-29T11:41:49.293Z,4.50
2023-01-29T11:44:21.680Z,2.80
2023-01-29T11:46:50.769Z,3.80
2023-01-29T11:49:30.496Z,2.93
2023-01-29T11:51:59.390Z,4.13
2023-01-29T11:54:31.427Z,10.83
2023-01-29T11:57:00.358Z,2.40
2023-01-29T11:59:32.008Z,4.50
2023-01-29T12:02:07.145Z,2.63
2023-01-29T12:04:35.640Z,4.30
2023-01-29T12:07:04.065Z,3.00
2023-01-29T12:09:33.860Z,3.00
2023-01-29T12:12:18.129Z,3.20
2023-01-29T12:14:46.503Z,3.30
2023-01-29T12:17:19.140Z,2.77
2023-01-29T12:19:49.883Z,4.13
2023-01-29T12:22:22.464Z,4.70
2023-01-29T12:24:54.620Z,5.70
2023-01-29T12:27:24.510Z,4.77
2023-01-29T12:29:57.933Z,3.23
2023-01-29T12:32:32.306Z,4.03
2023-01-29T12:35:03.759Z,4.50
2023-01-29T12:37:38.050Z,8.43
2023-01-29T12:40:14.975Z,4.67
2023-01-29T12:42:45.052Z,9.40
2023-01-29T12:45:18.029Z,3.40
2023-01-29T12:47:48.927Z,3.43
2023-01-29T12:50:21.225Z,2.87
2023-01-29T12:52:51.989Z,3.27
2023-01-29T12:55:23.495Z,2.93
2023-01-29T12:57:55.841Z,5.23
2023-01-29T13:00:25.986Z,5.43
2023-01-29T13:02:57.265Z,3.90
2023-01-29T13:05:28.085Z,5.70
2023-01-29T13:07:59.519Z,4.33
2023-01-29T13:10:31.447Z,3.80
2023-01-29T13:13:01.720Z,2.60
2023-01-29T13:15:32.102Z,2.83
2023-01-29T13:18:03.999Z,5.40
2023-01-29T13:20:33.919Z,2.73
2023-01-29T13:23:06.506Z,4.70
2023-01-29T13:25:36.272Z,4.17
2023-01-29T13:28:04.730Z,4.57
2023-01-29T13:30:33.913Z,8.30
2023-01-29T13:33:10.407Z,5.37
2023-01-29T13:35:41.642Z,4.40
2023-01-29T13:38:23.905Z,6.63
2023-01-29T13:40:54.184Z,3.93
2023-01-29T13:43:24.180Z,2.80
2023-01-29T13:45:54.175Z,3.40
2023-01-29T13:48:25.628Z,5.43
2023-01-29T13:50:54.866Z,7.70
2023-01-29T13:53:24.718Z,4.30
2023-01-29T13:55:54.550Z,4.87
2023-01-29T13:58:37.812Z,11.23
2023-01-29T14:01:06.326Z,4.90
2023-01-29T14:03:56.158Z,5.65
2023-01-29T14:06:40.088Z,8.73
2023-01-29T14:09:23.371Z,4.00
2023-01-29T14:11:53.121Z,27.13
2023-01-29T14:14:40.243Z,3.90
2023-01-29T14:17:09.031Z,3.00
2023-01-29T14:19:37.482Z,4.30
2023-01-29T14:22:06.660Z,5.83
2023-01-29T14:24:35.699Z,5.10
2023-01-29T14:27:05.601Z,4.57
2023-01-29T14:29:39.431Z,4.73
2023-01-29T14:32:14.296Z,4.83
2023-01-29T14:34:44.522Z,4.33
2023-01-29T14:37:21.880Z,6.60
2023-01-29T14:39:51.053Z,3.90
2023-01-29T14:42:24.044Z,3.57
2023-01-29T14:44:59.202Z,4.60
2023-01-29T14:47:46.452Z,4.97
2023-01-29T14:50:38.828Z,2.97
2023-01-29T14:53:12.349Z,2.87
2023-01-29T14:55:43.173Z,4.90
2023-01-29T14:58:15.559Z,4.37
2023-01-29T15:00:45.572Z,2.60
2023-01-29T15:03:15.486Z,4.30
2023-01-29T15:05:44.090Z,4.77
2023-01-29T15:08:18.409Z,4.57
2023-01-29T15:11:10.089Z,8.50
2023-01-29T15:13:44.393Z,8.87
2023-01-29T15:16:16.665Z,9.33
2023-01-29T15:18:45.495Z,8.97
2023-01-29T15:21:14.902Z,6.53
2023-01-29T15:23:44.299Z,4.40
2023-01-29T15:26:16.081Z,8.33
2023-01-29T15:28:54.841Z,10.00
2023-01-29T15:31:27.281Z,2.83
2023-01-29T15:33:56.756Z,4.97
2023-01-29T15:36:26.831Z,3.90
2023-01-29T15:39:09.230Z,2.97
2023-01-29T15:41:37.745Z,3.73
2023-01-29T15:44:11.644Z,3.53
2023-01-29T15:46:41.380Z,3.43
2023-01-29T15:49:10.523Z,3.43
2023-01-29T15:51:38.987Z,3.33
2023-01-29T15:54:08.602Z,3.83
2023-01-29T15:56:39.012Z,5.50
2023-01-29T15:59:09.988Z,4.77
2023-01-29T16:01:38.460Z,15.10
2023-01-29T16:04:07.205Z,8.20
2023-01-29T16:06:37.550Z,10.80
2023-01-29T16:09:06.700Z,10.83
2023-01-29T16:11:35.303Z,4.83
2023-01-29T16:14:04.806Z,5.57
2023-01-29T16:16:34.913Z,6.23
2023-01-29T16:19:03.512Z,5.37
2023-01-29T16:21:33.955Z,4.37
2023-01-29T16:24:03.292Z,7.00
2023-01-29T16:26:34.431Z,6.90
2023-01-29T16:29:06.346Z,5.50
2023-01-29T16:31:37.301Z,13.50
2023-01-29T16:34:08.775Z,5.57
2023-01-29T16:36:37.253Z,7.37
2023-01-29T16:39:08.760Z,7.03
2023-01-29T16:41:38.437Z,6.27
2023-01-29T16:44:27.850Z,6.37
2023-01-29T16:46:57.733Z,4.67
2023-01-29T16:49:50.192Z,7.70
2023-01-29T16:52:21.269Z,5.33
2023-01-29T16:54:49.402Z,10.27
2023-01-29T16:57:22.047Z,9.67
2023-01-29T16:59:50.661Z,17.00
2023-01-29T17:02:24.948Z,8.53
2023-01-29T17:04:54.764Z,6.67
2023-01-29T17:07:23.263Z,3.93
2023-01-29T17:09:52.933Z,5.60
2023-01-29T17:12:23.687Z,4.10
2023-01-29T17:14:55.693Z,3.67
2023-01-29T17:17:30.729Z,4.03
2023-01-29T17:19:59.261Z,3.17
2023-01-29T17:22:27.320Z,7.27
2023-01-29T17:24:55.461Z,6.17
2023-01-29T17:27:24.257Z,3.03
2023-01-29T17:29:53.504Z,3.77
2023-01-29T17:32:22.495Z,4.70
2023-01-29T17:34:52.526Z,3.53
2023-01-29T17:37:20.770Z,6.63
2023-01-29T17:39:50.600Z,2.20
2023-01-29T17:42:18.747Z,6.00
2023-01-29T17:44:46.911Z,6.03
2023-01-29T17:47:16.209Z,6.53
2023-01-29T17:49:44.723Z,8.23
2023-01-29T17:52:14.294Z,15.80
2023-01-29T17:54:42.436Z,15.77
2023-01-29T17:57:19.341Z,32.60
2023-01-29T17:59:47.655Z,99.40
2023-01-29T18:02:29.822Z,143.33
2023-01-29T18:04:58.001Z,89.03
2023-01-29T18:07:27.345Z,102.23
2023-01-29T18:09:55.323Z,72.50
2023-01-29T18:12:23.319Z,48.73
2023-01-29T18:14:51.271Z,52.43
2023-01-29T18:17:22.327Z,38.93
2023-01-29T18:19:50.438Z,16.77
2023-01-29T18:22:18.524Z,37.77
2023-01-29T18:24:47.859Z,24.57
2023-01-29T18:27:15.829Z,5.30
2023-01-29T18:29:43.920Z,6.27
2023-01-29T18:32:11.998Z,16.30
2023-01-29T18:34:41.218Z,11.43
2023-01-29T18:37:11.452Z,28.30
2023-01-29T18:39:40.382Z,24.83
2023-01-29T18:42:09.805Z,16.03
2023-01-29T18:44:37.814Z,15.47
2023-01-29T18:47:06.010Z,8.80
2023-01-29T18:49:34.247Z,5.20
2023-01-29T18:52:02.340Z,6.57
2023-01-29T18:54:30.460Z,4.80
2023-01-29T18:56:58.780Z,11.40
2023-01-29T18:59:43.052Z,7.07
2023-01-29T19:02:15.788Z,7.40
2023-01-29T19:04:44.413Z,14.03
2023-01-29T19:07:12.721Z,8.90
2023-01-29T19:09:42.185Z,11.50
2023-01-29T19:12:10.314Z,12.80
2023-01-29T19:14:38.493Z,5.90
2023-01-29T19:17:07.997Z,13.30
2023-01-29T19:19:36.344Z,7.67
2023-01-29T19:22:04.409Z,7.73
2023-01-29T19:24:36.313Z,8.03
2023-01-29T19:27:05.861Z,13.13
2023-01-29T19:29:34.140Z,7.10
2023-01-29T19:32:02.506Z,7.87
2023-01-29T19:34:32.039Z,6.13
2023-01-29T19:37:00.162Z,8.93
2023-01-29T19:39:33.633Z,6.83
2023-01-29T19:42:01.976Z,7.37
2023-01-29T19:44:30.139Z,16.10
2023-01-29T19:46:58.309Z,8.40
2023-01-29T19:49:27.529Z,9.27
2023-01-29T19:51:59.018Z,11.33
2023-01-29T19:54:28.469Z,5.23
2023-01-29T19:56:57.181Z,10.17
2023-01-29T19:59:25.351Z,11.30
2023-01-29T20:01:53.475Z,16.50
2023-01-29T20:04:21.633Z,5.57
2023-01-29T20:06:49.681Z,6.50
2023-01-29T20:09:19.265Z,4.87
2023-01-29T20:11:47.421Z,4.83
2023-01-29T20:14:15.612Z,4.93
2023-01-29T20:16:43.755Z,9.83
2023-01-29T20:19:14.070Z,18.57
2023-01-29T20:21:45.479Z,5.63
2023-01-29T20:24:14.439Z,7.03
2023-01-29T20:26:44.030Z,9.67
2023-01-29T20:29:13.489Z,11.37
2023-01-29T20:31:41.686Z,5.00
2023-01-29T20:34:09.888Z,9.67
2023-01-29T20:36:37.941Z,9.17
2023-01-29T20:39:06.026Z,9.20
2023-01-29T20:41:34.120Z,9.40
2023-01-29T20:44:03.588Z,11.90
2023-01-29T20:46:31.680Z,15.93
2023-01-29T20:48:59.767Z,8.67
2023-01-29T20:51:27.954Z,6.00
2023-01-29T20:53:56.550Z,7.63
2023-01-29T20:56:36.327Z,6.73
2023-01-29T20:59:10.388Z,8.60
2023-01-29T21:01:38.579Z,9.60
2023-01-29T21:04:06.870Z,10.77
2023-01-29T21:06:35.249Z,6.17
2023-01-29T21:09:03.328Z,4.73
2023-01-29T21:11:33.380Z,5.33
2023-01-29T21:14:01.971Z,8.13
2023-01-29T21:16:31.760Z,15.43
2023-01-29T21:19:00.608Z,5.67
2023-01-29T21:21:28.753Z,14.73
2023-01-29T21:23:58.300Z,11.67
2023-01-29T21:26:26.498Z,10.00
2023-01-29T21:28:54.734Z,7.67
2023-01-29T21:31:22.888Z,8.23
2023-01-29T21:33:52.448Z,7.67
2023-01-29T21:36:20.593Z,4.47
2023-01-29T21:38:48.771Z,4.00
2023-01-29T21:41:16.935Z,14.87
2023-01-29T21:43:45.233Z,3.87
2023-01-29T21:46:13.448Z,11.17
2023-01-29T21:48:41.865Z,5.30
2023-01-29T21:51:11.450Z,4.63
2023-01-29T21:53:39.650Z,10.93
2023-01-29T21:56:08.147Z,5.07
2023-01-29T21:58:36.343Z,4.17
2023-01-29T22:01:35.300Z,5.50
2023-01-29T22:03:52.663Z,4.90
2023-01-29T22:06:22.259Z,9.17
2023-01-29T22:08:50.967Z,14.57
2023-01-29T22:11:19.195Z,12.10
2023-01-29T22:13:47.337Z,8.13
2023-01-29T22:16:15.446Z,3.87
2023-01-29T22:18:43.624Z,37.90
2023-01-29T22:21:11.732Z,7.07
2023-01-29T22:23:41.229Z,7.57
2023-01-29T22:26:09.923Z,6.13
2023-01-29T22:28:38.177Z,6.63
2023-01-29T22:31:07.062Z,5.43
2023-01-29T22:33:35.336Z,10.03
2023-01-29T22:36:03.668Z,14.10
2023-01-29T22:38:32.058Z,16.53
2023-01-29T22:41:02.127Z,11.63
2023-01-29T22:43:30.270Z,6.00
2023-01-29T22:45:58.506Z,14.03
2023-01-29T22:48:28.316Z,6.60
2023-01-29T22:51:10.487Z,5.00
2023-01-29T22:53:39.300Z,7.70
2023-01-29T22:56:09.893Z,17.10
2023-01-29T22:58:38.695Z,13.33
2023-01-29T23:01:06.779Z,5.90
2023-01-29T23:03:34.935Z,5.30
2023-01-29T23:06:04.041Z,7.07
2023-01-29T23:08:33.899Z,9.00
2023-01-29T23:11:14.394Z,4.30
2023-01-29T23:13:46.202Z,4.37
2023-01-29T23:16:15.263Z,4.53
2023-01-29T23:18:43.628Z,4.40
2023-01-29T23:21:12.699Z,5.97
2023-01-29T23:23:41.035Z,9.37
2023-01-29T23:26:30.110Z,6.90
2023-01-29T23:29:00.255Z,8.83
2023-01-29T23:31:28.719Z,6.10
2023-01-29T23:33:56.936Z,5.30
2023-01-29T23:36:25.128Z,13.73
2023-01-29T23:39:02.325Z,4.37
2023-01-29T23:41:30.474Z,5.60
2023-01-29T23:43:59.991Z,5.67
2023-01-29T23:46:28.158Z,6.60
2023-01-29T23:48:56.338Z,6.53
2023-01-29T23:51:24.439Z,6.67
2023-01-29T23:53:52.669Z,4.77
2023-01-29T23:56:20.866Z,10.23
2023-01-29T23:58:49.044Z,7.40
